sensor_id;sensor_type;location;lat;lon;timestamp;temperature;humidity
76239;SHT30;65043;48.392;-4.472;2023-04-15T00:02:17;11.89;64.49
76239;SHT30;65043;48.392;-4.472;2023-04-15T00:04:46;11.89;64.58
76239;SHT30;65043;48.392;-4.472;2023-04-15T00:07:12;11.89;64.73
76239;SHT30;65043;48.392;-4.472;2023-04-15T00:09:38;11.85;64.66
76239;SHT30;65043;48.392;-4.472;2023-04-15T00:12:04;11.86;64.75
76239;SHT30;65043;48.392;-4.472;2023-04-15T00:14:29;11.87;64.72
76239;SHT30;65043;48.392;-4.472;2023-04-15T00:16:56;11.85;64.93
76239;SHT30;65043;48.392;-4.472;2023-04-15T00:19:22;11.85;64.77
76239;SHT30;65043;48.392;-4.472;2023-04-15T00:21:48;11.83;64.80
76239;SHT30;65043;48.392;-4.472;2023-04-15T00:24:14;11.82;64.77
76239;SHT30;65043;48.392;-4.472;2023-04-15T00:26:39;11.85;64.84
76239;SHT30;65043;48.392;-4.472;2023-04-15T00:29:05;11.85;64.93
76239;SHT30;65043;48.392;-4.472;2023-04-15T00:31:30;11.83;64.96
76239;SHT30;65043;48.392;-4.472;2023-04-15T00:33:56;11.82;65.05
76239;SHT30;65043;48.392;-4.472;2023-04-15T00:36:21;11.83;65.05
76239;SHT30;65043;48.392;-4.472;2023-04-15T00:38:47;11.82;65.04
76239;SHT30;65043;48.392;-4.472;2023-04-15T00:41:13;11.82;65.14
76239;SHT30;65043;48.392;-4.472;2023-04-15T00:43:39;11.81;65.09
76239;SHT30;65043;48.392;-4.472;2023-04-15T00:46:05;11.82;65.01
76239;SHT30;65043;48.392;-4.472;2023-04-15T00:48:31;11.82;65.20
76239;SHT30;65043;48.392;-4.472;2023-04-15T00:50:57;11.81;65.07
76239;SHT30;65043;48.392;-4.472;2023-04-15T00:53:22;11.76;65.26
76239;SHT30;65043;48.392;-4.472;2023-04-15T00:55:48;11.78;65.44
76239;SHT30;65043;48.392;-4.472;2023-04-15T00:58:14;11.76;65.57
76239;SHT30;65043;48.392;-4.472;2023-04-15T01:00:41;11.79;65.67
76239;SHT30;65043;48.392;-4.472;2023-04-15T01:03:07;11.78;65.72
76239;SHT30;65043;48.392;-4.472;2023-04-15T01:05:33;11.78;65.93
76239;SHT30;65043;48.392;-4.472;2023-04-15T01:07:59;11.76;66.13
76239;SHT30;65043;48.392;-4.472;2023-04-15T01:10:24;11.78;66.17
76239;SHT30;65043;48.392;-4.472;2023-04-15T01:12:50;11.78;66.23
76239;SHT30;65043;48.392;-4.472;2023-04-15T01:15:15;11.76;66.47
76239;SHT30;65043;48.392;-4.472;2023-04-15T01:17:41;11.75;66.53
76239;SHT30;65043;48.392;-4.472;2023-04-15T01:20:07;11.79;66.66
76239;SHT30;65043;48.392;-4.472;2023-04-15T01:22:35;11.78;66.72
76239;SHT30;65043;48.392;-4.472;2023-04-15T01:25:05;11.75;66.81
76239;SHT30;65043;48.392;-4.472;2023-04-15T01:27:35;11.81;66.89
76239;SHT30;65043;48.392;-4.472;2023-04-15T01:30:02;11.81;67.20
76239;SHT30;65043;48.392;-4.472;2023-04-15T01:32:29;11.79;67.19
76239;SHT30;65043;48.392;-4.472;2023-04-15T01:34:55;11.79;67.24
76239;SHT30;65043;48.392;-4.472;2023-04-15T01:37:20;11.79;67.29
76239;SHT30;65043;48.392;-4.472;2023-04-15T01:39:46;11.81;67.30
76239;SHT30;65043;48.392;-4.472;2023-04-15T01:42:11;11.79;67.42
76239;SHT30;65043;48.392;-4.472;2023-04-15T01:44:37;11.81;67.46
76239;SHT30;65043;48.392;-4.472;2023-04-15T01:47:02;11.76;67.57
76239;SHT30;65043;48.392;-4.472;2023-04-15T01:49:27;11.78;67.58
76239;SHT30;65043;48.392;-4.472;2023-04-15T01:51:53;11.79;67.63
76239;SHT30;65043;48.392;-4.472;2023-04-15T01:54:19;11.76;67.66
76239;SHT30;65043;48.392;-4.472;2023-04-15T01:56:44;11.78;67.88
76239;SHT30;65043;48.392;-4.472;2023-04-15T01:59:09;11.78;67.82
76239;SHT30;65043;48.392;-4.472;2023-04-15T02:01:35;11.79;67.69
76239;SHT30;65043;48.392;-4.472;2023-04-15T02:04:01;11.81;67.62
76239;SHT30;65043;48.392;-4.472;2023-04-15T02:06:26;11.79;67.75
76239;SHT30;65043;48.392;-4.472;2023-04-15T02:08:52;11.78;67.82
76239;SHT30;65043;48.392;-4.472;2023-04-15T02:11:17;11.78;67.80
76239;SHT30;65043;48.392;-4.472;2023-04-15T02:13:44;11.73;67.81
76239;SHT30;65043;48.392;-4.472;2023-04-15T02:16:18;11.73;67.86
76239;SHT30;65043;48.392;-4.472;2023-04-15T02:18:44;11.73;67.97
76239;SHT30;65043;48.392;-4.472;2023-04-15T02:21:11;11.75;67.94
76239;SHT30;65043;48.392;-4.472;2023-04-15T02:23:36;11.73;68.04
76239;SHT30;65043;48.392;-4.472;2023-04-15T02:26:02;11.73;67.82
76239;SHT30;65043;48.392;-4.472;2023-04-15T02:28:27;11.73;67.83
76239;SHT30;65043;48.392;-4.472;2023-04-15T02:30:53;11.75;67.74
76239;SHT30;65043;48.392;-4.472;2023-04-15T02:33:21;11.75;67.69
76239;SHT30;65043;48.392;-4.472;2023-04-15T02:35:46;11.73;67.67
76239;SHT30;65043;48.392;-4.472;2023-04-15T02:38:12;11.71;67.73
76239;SHT30;65043;48.392;-4.472;2023-04-15T02:40:39;11.72;67.66
76239;SHT30;65043;48.392;-4.472;2023-04-15T02:43:04;11.72;67.75
76239;SHT30;65043;48.392;-4.472;2023-04-15T02:45:31;11.71;67.68
76239;SHT30;65043;48.392;-4.472;2023-04-15T02:47:57;11.71;67.70
76239;SHT30;65043;48.392;-4.472;2023-04-15T02:50:22;11.73;67.61
76239;SHT30;65043;48.392;-4.472;2023-04-15T02:52:49;11.73;67.62
76239;SHT30;65043;48.392;-4.472;2023-04-15T02:55:15;11.73;67.69
76239;SHT30;65043;48.392;-4.472;2023-04-15T02:57:42;11.72;67.70
76239;SHT30;65043;48.392;-4.472;2023-04-15T03:00:08;11.72;67.68
76239;SHT30;65043;48.392;-4.472;2023-04-15T03:02:36;11.69;67.70
76239;SHT30;65043;48.392;-4.472;2023-04-15T03:05:02;11.71;67.72
76239;SHT30;65043;48.392;-4.472;2023-04-15T03:07:28;11.72;67.63
76239;SHT30;65043;48.392;-4.472;2023-04-15T03:09:54;11.71;67.63
76239;SHT30;65043;48.392;-4.472;2023-04-15T03:12:19;11.71;67.72
76239;SHT30;65043;48.392;-4.472;2023-04-15T03:14:45;11.72;67.64
76239;SHT30;65043;48.392;-4.472;2023-04-15T03:17:11;11.69;67.58
76239;SHT30;65043;48.392;-4.472;2023-04-15T03:19:36;11.72;67.59
76239;SHT30;65043;48.392;-4.472;2023-04-15T03:22:02;11.69;67.61
76239;SHT30;65043;48.392;-4.472;2023-04-15T03:24:27;11.68;67.58
76239;SHT30;65043;48.392;-4.472;2023-04-15T03:26:54;11.69;67.65
76239;SHT30;65043;48.392;-4.472;2023-04-15T03:29:20;11.68;67.57
76239;SHT30;65043;48.392;-4.472;2023-04-15T03:31:45;11.68;67.59
76239;SHT30;65043;48.392;-4.472;2023-04-15T03:34:11;11.65;67.61
76239;SHT30;65043;48.392;-4.472;2023-04-15T03:36:36;11.68;67.63
76239;SHT30;65043;48.392;-4.472;2023-04-15T03:39:02;11.63;67.77
76239;SHT30;65043;48.392;-4.472;2023-04-15T03:41:28;11.68;67.77
76239;SHT30;65043;48.392;-4.472;2023-04-15T03:43:53;11.66;67.68
76239;SHT30;65043;48.392;-4.472;2023-04-15T03:46:19;11.68;67.75
76239;SHT30;65043;48.392;-4.472;2023-04-15T03:48:45;11.65;67.78
76239;SHT30;65043;48.392;-4.472;2023-04-15T03:51:11;11.66;67.74
76239;SHT30;65043;48.392;-4.472;2023-04-15T03:53:36;11.63;67.83
76239;SHT30;65043;48.392;-4.472;2023-04-15T03:56:02;11.63;67.85
76239;SHT30;65043;48.392;-4.472;2023-04-15T03:58:27;11.62;67.92
76239;SHT30;65043;48.392;-4.472;2023-04-15T04:00:52;11.62;67.88
76239;SHT30;65043;48.392;-4.472;2023-04-15T04:03:19;11.62;67.98
76239;SHT30;65043;48.392;-4.472;2023-04-15T04:05:44;11.62;67.96
76239;SHT30;65043;48.392;-4.472;2023-04-15T04:08:10;11.62;68.04
76239;SHT30;65043;48.392;-4.472;2023-04-15T04:10:38;11.61;68.05
76239;SHT30;65043;48.392;-4.472;2023-04-15T04:13:03;11.61;68.02
76239;SHT30;65043;48.392;-4.472;2023-04-15T04:15:29;11.61;67.97
76239;SHT30;65043;48.392;-4.472;2023-04-15T04:17:54;11.61;68.06
76239;SHT30;65043;48.392;-4.472;2023-04-15T04:20:20;11.59;68.04
76239;SHT30;65043;48.392;-4.472;2023-04-15T04:22:45;11.58;68.06
76239;SHT30;65043;48.392;-4.472;2023-04-15T04:25:11;11.61;68.09
76239;SHT30;65043;48.392;-4.472;2023-04-15T04:27:36;11.61;68.21
76239;SHT30;65043;48.392;-4.472;2023-04-15T04:30:02;11.58;68.24
76239;SHT30;65043;48.392;-4.472;2023-04-15T04:32:28;11.58;68.35
76239;SHT30;65043;48.392;-4.472;2023-04-15T04:34:53;11.57;68.27
76239;SHT30;65043;48.392;-4.472;2023-04-15T04:37:19;11.57;68.39
76239;SHT30;65043;48.392;-4.472;2023-04-15T04:39:45;11.52;68.33
76239;SHT30;65043;48.392;-4.472;2023-04-15T04:42:10;11.54;68.51
76239;SHT30;65043;48.392;-4.472;2023-04-15T04:44:35;11.54;68.47
76239;SHT30;65043;48.392;-4.472;2023-04-15T04:47:01;11.51;68.49
76239;SHT30;65043;48.392;-4.472;2023-04-15T04:49:26;11.52;68.56
76239;SHT30;65043;48.392;-4.472;2023-04-15T04:51:52;11.52;68.65
76239;SHT30;65043;48.392;-4.472;2023-04-15T04:54:17;11.52;68.67
76239;SHT30;65043;48.392;-4.472;2023-04-15T04:56:43;11.51;68.71
76239;SHT30;65043;48.392;-4.472;2023-04-15T04:59:08;11.52;68.59
76239;SHT30;65043;48.392;-4.472;2023-04-15T05:01:34;11.52;68.65
76239;SHT30;65043;48.392;-4.472;2023-04-15T05:03:59;11.54;68.63
76239;SHT30;65043;48.392;-4.472;2023-04-15T05:06:25;11.52;68.79
76239;SHT30;65043;48.392;-4.472;2023-04-15T05:08:50;11.50;68.69
76239;SHT30;65043;48.392;-4.472;2023-04-15T05:11:16;11.50;68.74
76239;SHT30;65043;48.392;-4.472;2023-04-15T05:13:41;11.51;68.84
76239;SHT30;65043;48.392;-4.472;2023-04-15T05:16:07;11.50;68.89
76239;SHT30;65043;48.392;-4.472;2023-04-15T05:18:33;11.46;68.93
76239;SHT30;65043;48.392;-4.472;2023-04-15T05:20:58;11.46;69.02
76239;SHT30;65043;48.392;-4.472;2023-04-15T05:23:24;11.44;69.14
76239;SHT30;65043;48.392;-4.472;2023-04-15T05:25:50;11.42;69.10
76239;SHT30;65043;48.392;-4.472;2023-04-15T05:28:15;11.41;69.32
76239;SHT30;65043;48.392;-4.472;2023-04-15T05:30:41;11.38;69.44
76239;SHT30;65043;48.392;-4.472;2023-04-15T05:33:06;11.35;69.57
76239;SHT30;65043;48.392;-4.472;2023-04-15T05:35:32;11.36;69.61
76239;SHT30;65043;48.392;-4.472;2023-04-15T05:37:58;11.39;69.61
76239;SHT30;65043;48.392;-4.472;2023-04-15T05:40:23;11.41;69.71
76239;SHT30;65043;48.392;-4.472;2023-04-15T05:42:48;11.41;69.64
76239;SHT30;65043;48.392;-4.472;2023-04-15T05:45:14;11.42;69.98
76239;SHT30;65043;48.392;-4.472;2023-04-15T05:47:39;11.41;69.91
76239;SHT30;65043;48.392;-4.472;2023-04-15T05:50:05;11.41;69.93
76239;SHT30;65043;48.392;-4.472;2023-04-15T05:52:31;11.41;69.95
76239;SHT30;65043;48.392;-4.472;2023-04-15T05:54:57;11.41;69.99
76239;SHT30;65043;48.392;-4.472;2023-04-15T05:57:23;11.44;70.30
76239;SHT30;65043;48.392;-4.472;2023-04-15T05:59:48;11.44;70.33
76239;SHT30;65043;48.392;-4.472;2023-04-15T06:02:16;11.45;70.34
76239;SHT30;65043;48.392;-4.472;2023-04-15T06:04:41;11.45;70.24
76239;SHT30;65043;48.392;-4.472;2023-04-15T06:07:07;11.50;70.46
76239;SHT30;65043;48.392;-4.472;2023-04-15T06:09:32;11.48;70.55
76239;SHT30;65043;48.392;-4.472;2023-04-15T06:11:58;11.51;70.52
76239;SHT30;65043;48.392;-4.472;2023-04-15T06:14:23;11.51;70.86
76239;SHT30;65043;48.392;-4.472;2023-04-15T06:16:49;11.51;70.79
76239;SHT30;65043;48.392;-4.472;2023-04-15T06:19:14;11.51;70.82
76239;SHT30;65043;48.392;-4.472;2023-04-15T06:21:40;11.52;70.57
76239;SHT30;65043;48.392;-4.472;2023-04-15T06:24:06;11.54;70.98
76239;SHT30;65043;48.392;-4.472;2023-04-15T06:26:31;11.55;71.03
76239;SHT30;65043;48.392;-4.472;2023-04-15T06:28:57;11.58;70.82
76239;SHT30;65043;48.392;-4.472;2023-04-15T06:31:22;11.55;71.10
76239;SHT30;65043;48.392;-4.472;2023-04-15T06:33:48;11.59;71.03
76239;SHT30;65043;48.392;-4.472;2023-04-15T06:36:13;11.62;70.79
76239;SHT30;65043;48.392;-4.472;2023-04-15T06:38:39;11.63;71.35
76239;SHT30;65043;48.392;-4.472;2023-04-15T06:41:04;11.68;70.89
76239;SHT30;65043;48.392;-4.472;2023-04-15T06:43:30;11.71;71.06
76239;SHT30;65043;48.392;-4.472;2023-04-15T06:45:56;11.71;71.36
76239;SHT30;65043;48.392;-4.472;2023-04-15T06:48:21;11.71;71.08
76239;SHT30;65043;48.392;-4.472;2023-04-15T06:50:48;11.73;71.41
76239;SHT30;65043;48.392;-4.472;2023-04-15T06:53:13;11.78;71.40
76239;SHT30;65043;48.392;-4.472;2023-04-15T06:55:38;11.83;70.92
76239;SHT30;65043;48.392;-4.472;2023-04-15T06:58:05;11.85;71.13
76239;SHT30;65043;48.392;-4.472;2023-04-15T07:00:32;11.87;71.45
76239;SHT30;65043;48.392;-4.472;2023-04-15T07:02:58;11.89;71.69
76239;SHT30;65043;48.392;-4.472;2023-04-15T07:05:27;11.90;71.68
76239;SHT30;65043;48.392;-4.472;2023-04-15T07:07:53;11.94;71.31
76239;SHT30;65043;48.392;-4.472;2023-04-15T07:10:18;11.97;72.14
76239;SHT30;65043;48.392;-4.472;2023-04-15T07:12:44;11.99;71.44
76239;SHT30;65043;48.392;-4.472;2023-04-15T07:15:10;12.02;71.63
76239;SHT30;65043;48.392;-4.472;2023-04-15T07:17:36;12.09;72.20
76239;SHT30;65043;48.392;-4.472;2023-04-15T07:20:02;12.13;71.89
76239;SHT30;65043;48.392;-4.472;2023-04-15T07:22:29;12.16;71.86
76239;SHT30;65043;48.392;-4.472;2023-04-15T07:24:54;12.20;71.95
76239;SHT30;65043;48.392;-4.472;2023-04-15T07:27:19;12.24;71.27
76239;SHT30;65043;48.392;-4.472;2023-04-15T07:29:45;12.31;72.11
76239;SHT30;65043;48.392;-4.472;2023-04-15T07:32:10;12.36;71.64
76239;SHT30;65043;48.392;-4.472;2023-04-15T07:34:36;12.41;71.30
76239;SHT30;65043;48.392;-4.472;2023-04-15T07:37:02;12.47;72.25
76239;SHT30;65043;48.392;-4.472;2023-04-15T07:39:27;12.53;71.53
76239;SHT30;65043;48.392;-4.472;2023-04-15T07:41:54;12.55;71.32
76239;SHT30;65043;48.392;-4.472;2023-04-15T07:44:19;12.57;71.70
76239;SHT30;65043;48.392;-4.472;2023-04-15T07:46:45;12.64;71.45
76239;SHT30;65043;48.392;-4.472;2023-04-15T07:49:10;12.67;71.68
76239;SHT30;65043;48.392;-4.472;2023-04-15T07:51:36;12.78;71.14
76239;SHT30;65043;48.392;-4.472;2023-04-15T07:54:02;12.80;70.84
76239;SHT30;65043;48.392;-4.472;2023-04-15T07:56:28;12.84;70.51
76239;SHT30;65043;48.392;-4.472;2023-04-15T07:58:53;12.91;70.34
76239;SHT30;65043;48.392;-4.472;2023-04-15T08:01:19;12.93;70.02
76239;SHT30;65043;48.392;-4.472;2023-04-15T08:03:45;12.98;69.44
76239;SHT30;65043;48.392;-4.472;2023-04-15T08:06:11;13.01;69.39
76239;SHT30;65043;48.392;-4.472;2023-04-15T08:08:36;13.06;69.36
76239;SHT30;65043;48.392;-4.472;2023-04-15T08:11:02;13.06;68.56
76239;SHT30;65043;48.392;-4.472;2023-04-15T08:13:27;13.08;67.62
76239;SHT30;65043;48.392;-4.472;2023-04-15T08:16:18;13.11;66.93
76239;SHT30;65043;48.392;-4.472;2023-04-15T08:18:45;13.15;66.47
76239;SHT30;65043;48.392;-4.472;2023-04-15T08:21:10;13.19;66.17
76239;SHT30;65043;48.392;-4.472;2023-04-15T08:23:36;13.19;65.68
76239;SHT30;65043;48.392;-4.472;2023-04-15T08:26:02;13.20;65.61
76239;SHT30;65043;48.392;-4.472;2023-04-15T08:28:28;13.24;65.61
76239;SHT30;65043;48.392;-4.472;2023-04-15T08:30:53;13.24;65.85
76239;SHT30;65043;48.392;-4.472;2023-04-15T08:33:19;13.30;65.50
76239;SHT30;65043;48.392;-4.472;2023-04-15T08:35:45;13.30;64.90
76239;SHT30;65043;48.392;-4.472;2023-04-15T08:38:10;13.32;64.49
76239;SHT30;65043;48.392;-4.472;2023-04-15T08:40:44;13.36;64.58
76239;SHT30;65043;48.392;-4.472;2023-04-15T08:43:14;13.40;63.98
76239;SHT30;65043;48.392;-4.472;2023-04-15T08:45:43;13.39;62.84
76239;SHT30;65043;48.392;-4.472;2023-04-15T08:48:14;13.39;62.50
76239;SHT30;65043;48.392;-4.472;2023-04-15T08:50:41;13.43;62.57
76239;SHT30;65043;48.392;-4.472;2023-04-15T08:53:08;13.42;62.62
76239;SHT30;65043;48.392;-4.472;2023-04-15T08:55:35;13.49;62.76
76239;SHT30;65043;48.392;-4.472;2023-04-15T08:58:01;13.54;62.62
76239;SHT30;65043;48.392;-4.472;2023-04-15T09:00:31;13.57;62.57
76239;SHT30;65043;48.392;-4.472;2023-04-15T09:02:58;13.64;62.30
76239;SHT30;65043;48.392;-4.472;2023-04-15T09:05:24;13.70;62.60
76239;SHT30;65043;48.392;-4.472;2023-04-15T09:07:50;13.81;62.31
76239;SHT30;65043;48.392;-4.472;2023-04-15T09:10:16;13.85;62.17
76239;SHT30;65043;48.392;-4.472;2023-04-15T09:12:41;13.90;61.23
76239;SHT30;65043;48.392;-4.472;2023-04-15T09:15:07;13.97;60.59
76239;SHT30;65043;48.392;-4.472;2023-04-15T09:17:41;13.95;60.60
76239;SHT30;65043;48.392;-4.472;2023-04-15T09:20:12;14.00;60.59
76239;SHT30;65043;48.392;-4.472;2023-04-15T09:22:39;14.01;60.13
76239;SHT30;65043;48.392;-4.472;2023-04-15T09:25:26;14.07;59.76
76239;SHT30;65043;48.392;-4.472;2023-04-15T09:28:00;14.10;58.76
76239;SHT30;65043;48.392;-4.472;2023-04-15T09:30:27;14.10;58.46
76239;SHT30;65043;48.392;-4.472;2023-04-15T09:32:58;14.08;57.81
76239;SHT30;65043;48.392;-4.472;2023-04-15T09:35:24;14.07;58.09
76239;SHT30;65043;48.392;-4.472;2023-04-15T09:37:51;14.10;59.03
76239;SHT30;65043;48.392;-4.472;2023-04-15T09:40:36;14.17;59.01
76239;SHT30;65043;48.392;-4.472;2023-04-15T09:43:03;14.21;58.67
76239;SHT30;65043;48.392;-4.472;2023-04-15T09:45:29;14.26;58.62
76239;SHT30;65043;48.392;-4.472;2023-04-15T09:48:14;14.31;58.16
76239;SHT30;65043;48.392;-4.472;2023-04-15T09:50:40;14.32;57.58
76239;SHT30;65043;48.392;-4.472;2023-04-15T09:53:09;14.33;57.02
76239;SHT30;65043;48.392;-4.472;2023-04-15T09:55:35;14.31;56.26
76239;SHT30;65043;48.392;-4.472;2023-04-15T09:58:00;14.31;56.33
76239;SHT30;65043;48.392;-4.472;2023-04-15T10:00:28;14.35;55.88
76239;SHT30;65043;48.392;-4.472;2023-04-15T10:02:53;14.38;56.03
76239;SHT30;65043;48.392;-4.472;2023-04-15T10:05:19;14.35;55.58
76239;SHT30;65043;48.392;-4.472;2023-04-15T10:07:45;14.39;54.93
76239;SHT30;65043;48.392;-4.472;2023-04-15T10:10:11;14.41;55.24
76239;SHT30;65043;48.392;-4.472;2023-04-15T10:12:39;14.43;55.46
76239;SHT30;65043;48.392;-4.472;2023-04-15T10:15:05;14.48;55.31
76239;SHT30;65043;48.392;-4.472;2023-04-15T10:17:34;14.49;55.91
76239;SHT30;65043;48.392;-4.472;2023-04-15T10:20:02;14.55;54.30
76239;SHT30;65043;48.392;-4.472;2023-04-15T10:22:29;14.56;51.37
76239;SHT30;65043;48.392;-4.472;2023-04-15T10:24:55;14.53;52.49
76239;SHT30;65043;48.392;-4.472;2023-04-15T10:27:22;14.56;52.95
76239;SHT30;65043;48.392;-4.472;2023-04-15T10:29:50;14.59;53.49
76239;SHT30;65043;48.392;-4.472;2023-04-15T10:32:19;14.65;53.30
76239;SHT30;65043;48.392;-4.472;2023-04-15T10:34:46;14.69;53.98
76239;SHT30;65043;48.392;-4.472;2023-04-15T10:37:19;14.72;54.36
76239;SHT30;65043;48.392;-4.472;2023-04-15T10:39:45;14.75;53.36
76239;SHT30;65043;48.392;-4.472;2023-04-15T10:42:17;14.76;53.66
76239;SHT30;65043;48.392;-4.472;2023-04-15T10:44:47;14.83;53.76
76239;SHT30;65043;48.392;-4.472;2023-04-15T10:47:15;14.84;52.57
76239;SHT30;65043;48.392;-4.472;2023-04-15T10:52:11;14.91;53.04
76239;SHT30;65043;48.392;-4.472;2023-04-15T10:54:38;14.94;52.21
76239;SHT30;65043;48.392;-4.472;2023-04-15T11:02:48;15.03;50.90
76239;SHT30;65043;48.392;-4.472;2023-04-15T11:05:16;15.04;50.71
76239;SHT30;65043;48.392;-4.472;2023-04-15T11:12:41;15.07;49.09
76239;SHT30;65043;48.392;-4.472;2023-04-15T11:18:08;15.17;49.44
76239;SHT30;65043;48.392;-4.472;2023-04-15T11:20:34;15.21;49.80
76239;SHT30;65043;48.392;-4.472;2023-04-15T11:22:59;15.31;50.72
76239;SHT30;65043;48.392;-4.472;2023-04-15T11:25:26;15.38;49.94
76239;SHT30;65043;48.392;-4.472;2023-04-15T11:27:53;15.44;49.04
76239;SHT30;65043;48.392;-4.472;2023-04-15T11:32:46;15.52;48.69
76239;SHT30;65043;48.392;-4.472;2023-04-15T11:35:12;15.49;49.25
76239;SHT30;65043;48.392;-4.472;2023-04-15T11:37:37;15.58;49.89
76239;SHT30;65043;48.392;-4.472;2023-04-15T11:40:03;15.68;49.24
76239;SHT30;65043;48.392;-4.472;2023-04-15T11:42:28;15.73;49.19
76239;SHT30;65043;48.392;-4.472;2023-04-15T11:45:10;15.73;49.16
76239;SHT30;65043;48.392;-4.472;2023-04-15T11:47:37;15.77;49.55
76239;SHT30;65043;48.392;-4.472;2023-04-15T11:50:21;15.79;49.64
76239;SHT30;65043;48.392;-4.472;2023-04-15T11:55:18;15.83;49.14
76239;SHT30;65043;48.392;-4.472;2023-04-15T11:57:44;15.81;48.12
76239;SHT30;65043;48.392;-4.472;2023-04-15T12:00:10;15.79;48.72
76239;SHT30;65043;48.392;-4.472;2023-04-15T12:02:36;15.82;49.08
76239;SHT30;65043;48.392;-4.472;2023-04-15T12:05:03;15.86;49.07
76239;SHT30;65043;48.392;-4.472;2023-04-15T12:07:29;15.95;48.98
76239;SHT30;65043;48.392;-4.472;2023-04-15T12:09:55;15.98;48.95
76239;SHT30;65043;48.392;-4.472;2023-04-15T12:12:21;15.99;49.28
76239;SHT30;65043;48.392;-4.472;2023-04-15T12:14:51;15.96;49.00
76239;SHT30;65043;48.392;-4.472;2023-04-15T12:17:17;16.02;48.84
76239;SHT30;65043;48.392;-4.472;2023-04-15T12:19:42;16.09;47.12
76239;SHT30;65043;48.392;-4.472;2023-04-15T12:22:14;16.19;46.46
76239;SHT30;65043;48.392;-4.472;2023-04-15T12:24:41;16.27;47.23
76239;SHT30;65043;48.392;-4.472;2023-04-15T12:27:13;16.33;47.24
76239;SHT30;65043;48.392;-4.472;2023-04-15T12:29:40;16.39;45.87
76239;SHT30;65043;48.392;-4.472;2023-04-15T12:34:38;16.47;45.16
76239;SHT30;65043;48.392;-4.472;2023-04-15T12:37:06;16.56;45.76
76239;SHT30;65043;48.392;-4.472;2023-04-15T12:39:42;16.57;43.11
76239;SHT30;65043;48.392;-4.472;2023-04-15T12:42:08;16.60;43.61
76239;SHT30;65043;48.392;-4.472;2023-04-15T12:44:34;16.65;43.35
76239;SHT30;65043;48.392;-4.472;2023-04-15T12:47:00;16.74;44.61
76239;SHT30;65043;48.392;-4.472;2023-04-15T12:49:26;16.81;43.82
76239;SHT30;65043;48.392;-4.472;2023-04-15T12:51:56;16.88;43.48
76239;SHT30;65043;48.392;-4.472;2023-04-15T12:54:24;17.01;43.97
76239;SHT30;65043;48.392;-4.472;2023-04-15T12:56:49;17.07;44.53
76239;SHT30;65043;48.392;-4.472;2023-04-15T12:59:16;17.19;45.67
76239;SHT30;65043;48.392;-4.472;2023-04-15T13:01:43;17.30;45.64
76239;SHT30;65043;48.392;-4.472;2023-04-15T13:04:09;17.36;44.50
76239;SHT30;65043;48.392;-4.472;2023-04-15T13:06:34;17.40;41.86
76239;SHT30;65043;48.392;-4.472;2023-04-15T13:09:01;17.45;40.36
76239;SHT30;65043;48.392;-4.472;2023-04-15T13:11:29;17.46;42.02
76239;SHT30;65043;48.392;-4.472;2023-04-15T13:14:00;17.46;43.17
76239;SHT30;65043;48.392;-4.472;2023-04-15T13:16:25;17.43;43.60
76239;SHT30;65043;48.392;-4.472;2023-04-15T13:18:51;17.42;43.30
76239;SHT30;65043;48.392;-4.472;2023-04-15T13:21:17;17.47;42.90
76239;SHT30;65043;48.392;-4.472;2023-04-15T13:23:43;17.60;42.68
76239;SHT30;65043;48.392;-4.472;2023-04-15T13:26:08;17.66;42.33
76239;SHT30;65043;48.392;-4.472;2023-04-15T13:28:34;17.77;41.76
76239;SHT30;65043;48.392;-4.472;2023-04-15T13:31:00;17.81;43.29
76239;SHT30;65043;48.392;-4.472;2023-04-15T13:33:26;17.87;43.28
76239;SHT30;65043;48.392;-4.472;2023-04-15T13:35:51;17.98;42.90
76239;SHT30;65043;48.392;-4.472;2023-04-15T13:38:17;18.02;41.17
76239;SHT30;65043;48.392;-4.472;2023-04-15T13:40:42;18.11;42.41
76239;SHT30;65043;48.392;-4.472;2023-04-15T13:43:08;18.15;43.07
76239;SHT30;65043;48.392;-4.472;2023-04-15T13:45:33;18.14;44.21
76239;SHT30;65043;48.392;-4.472;2023-04-15T13:47:59;18.17;44.54
76239;SHT30;65043;48.392;-4.472;2023-04-15T13:50:24;18.21;43.65
76239;SHT30;65043;48.392;-4.472;2023-04-15T13:52:50;18.25;42.73
76239;SHT30;65043;48.392;-4.472;2023-04-15T13:55:15;18.31;43.10
76239;SHT30;65043;48.392;-4.472;2023-04-15T13:57:40;18.36;43.31
76239;SHT30;65043;48.392;-4.472;2023-04-15T14:00:06;18.42;43.88
76239;SHT30;65043;48.392;-4.472;2023-04-15T14:02:32;18.52;43.89
76239;SHT30;65043;48.392;-4.472;2023-04-15T14:04:57;18.58;43.17
76239;SHT30;65043;48.392;-4.472;2023-04-15T14:07:23;18.66;42.61
76239;SHT30;65043;48.392;-4.472;2023-04-15T14:09:48;18.72;42.20
76239;SHT30;65043;48.392;-4.472;2023-04-15T14:12:14;18.70;41.10
76239;SHT30;65043;48.392;-4.472;2023-04-15T14:14:39;18.79;41.14
76239;SHT30;65043;48.392;-4.472;2023-04-15T14:17:06;18.80;41.53
76239;SHT30;65043;48.392;-4.472;2023-04-15T14:19:34;18.90;40.45
76239;SHT30;65043;48.392;-4.472;2023-04-15T14:21:59;19.03;40.03
76239;SHT30;65043;48.392;-4.472;2023-04-15T14:24:25;19.10;39.27
76239;SHT30;65043;48.392;-4.472;2023-04-15T14:26:51;19.16;39.80
76239;SHT30;65043;48.392;-4.472;2023-04-15T14:29:17;19.20;40.70
76239;SHT30;65043;48.392;-4.472;2023-04-15T14:31:42;19.21;40.80
76239;SHT30;65043;48.392;-4.472;2023-04-15T14:34:09;19.21;40.69
76239;SHT30;65043;48.392;-4.472;2023-04-15T14:36:35;19.23;40.28
76239;SHT30;65043;48.392;-4.472;2023-04-15T14:39:00;19.26;40.48
76239;SHT30;65043;48.392;-4.472;2023-04-15T14:41:25;19.31;40.46
76239;SHT30;65043;48.392;-4.472;2023-04-15T14:43:51;19.31;40.45
76239;SHT30;65043;48.392;-4.472;2023-04-15T14:46:16;19.24;39.68
76239;SHT30;65043;48.392;-4.472;2023-04-15T14:48:42;19.18;40.70
76239;SHT30;65043;48.392;-4.472;2023-04-15T14:51:07;19.21;40.59
76239;SHT30;65043;48.392;-4.472;2023-04-15T14:53:32;19.21;40.79
76239;SHT30;65043;48.392;-4.472;2023-04-15T14:55:58;19.27;40.96
76239;SHT30;65043;48.392;-4.472;2023-04-15T14:58:23;19.32;40.85
76239;SHT30;65043;48.392;-4.472;2023-04-15T15:00:49;19.38;40.98
76239;SHT30;65043;48.392;-4.472;2023-04-15T15:03:15;19.44;39.16
76239;SHT30;65043;48.392;-4.472;2023-04-15T15:05:43;19.45;38.26
76239;SHT30;65043;48.392;-4.472;2023-04-15T15:08:09;19.45;38.86
76239;SHT30;65043;48.392;-4.472;2023-04-15T15:10:35;19.54;38.63
76239;SHT30;65043;48.392;-4.472;2023-04-15T15:13:05;19.54;37.43
76239;SHT30;65043;48.392;-4.472;2023-04-15T15:15:32;19.59;37.86
76239;SHT30;65043;48.392;-4.472;2023-04-15T15:17:57;19.64;37.00
76239;SHT30;65043;48.392;-4.472;2023-04-15T15:20:23;19.69;37.02
76239;SHT30;65043;48.392;-4.472;2023-04-15T15:22:49;19.79;37.17
76239;SHT30;65043;48.392;-4.472;2023-04-15T15:25:14;19.83;36.52
76239;SHT30;65043;48.392;-4.472;2023-04-15T15:27:39;19.83;36.56
76239;SHT30;65043;48.392;-4.472;2023-04-15T15:30:05;19.83;37.53
76239;SHT30;65043;48.392;-4.472;2023-04-15T15:32:31;19.78;37.88
76239;SHT30;65043;48.392;-4.472;2023-04-15T15:34:57;19.81;38.12